Time;durP1;ratioP1;P1;durP2;ratioP2;P2;SDS_P1;SDS_P2;PMS_P1;PMS_P2;Temp;Humidity;BMP_temperature;BMP_pressure;BME280_temperature;BME280_humidity;BME280_pressure;Samples;Min_cycle;Max_cycle;Signal;HPM_P1;HPM_P2
2021/07/25 00:01:15;;;;;;;6.28;4.60;;;;;;;18.40;63.22;100502.91;4833375;29;20190;-87
2021/07/25 00:03:41;;;;;;;5.60;4.68;;;;;;;18.42;62.97;100486.53;4832566;29;20152;-86
2021/07/25 00:06:27;;;;;;;7.65;5.18;;;;;;;18.39;62.87;100484.53;4814051;29;20045;-86
2021/07/25 00:08:54;;;;;;;6.90;4.28;;;;;;;18.39;63.03;100487.31;4833122;29;20102;-86
2021/07/25 00:11:20;;;;;;;9.45;5.30;;;;;;;18.32;63.24;100480.94;4815985;29;20045;-85
2021/07/25 00:13:51;;;;;;;7.05;4.85;;;;;;;18.28;63.36;100483.75;4832029;29;20061;-85
2021/07/25 00:16:19;;;;;;;7.00;5.30;;;;;;;18.27;63.17;100482.13;4832394;29;20790;-86
2021/07/25 00:18:46;;;;;;;8.57;4.78;;;;;;;18.29;63.15;100492.94;4816217;29;20046;-83
2021/07/25 00:21:13;;;;;;;7.22;4.90;;;;;;;18.24;62.97;100483.75;4831890;29;20050;-85
2021/07/25 00:23:47;;;;;;;9.00;5.32;;;;;;;18.19;63.33;100478.53;4810913;29;20042;-85
2021/07/25 00:26:17;;;;;;;10.13;5.88;;;;;;;18.13;63.36;100482.19;4816554;29;20058;-86
2021/07/25 00:28:47;;;;;;;6.38;5.05;;;;;;;18.03;63.63;100477.38;4830788;29;20140;-85
2021/07/25 00:31:13;;;;;;;8.95;5.55;;;;;;;18.06;63.35;100482.16;4832762;29;20046;-85
2021/07/25 00:33:40;;;;;;;7.78;5.40;;;;;;;17.99;63.44;100473.78;4832585;29;20057;-87
2021/07/25 00:36:07;;;;;;;5.97;4.50;;;;;;;17.95;63.69;100464.59;4815742;29;20417;-85
2021/07/25 00:38:34;;;;;;;9.52;5.97;;;;;;;17.91;64.05;100470.19;4832972;29;20069;-86
2021/07/25 00:41:20;;;;;;;7.03;4.15;;;;;;;17.87;64.39;100477.00;4815495;29;20057;-87
2021/07/25 00:43:48;;;;;;;6.07;4.68;;;;;;;17.88;64.11;100464.56;4831899;29;20038;-86
2021/07/25 00:46:16;;;;;;;5.05;4.55;;;;;;;17.89;64.29;100471.78;4831846;29;20084;-86
2021/07/25 00:48:47;;;;;;;9.38;5.40;;;;;;;17.87;64.45;100471.41;4830834;29;20996;-83
2021/07/25 00:51:14;;;;;;;7.85;5.35;;;;;;;17.83;64.48;100467.78;4830535;29;20054;-86
2021/07/25 00:53:42;;;;;;;6.55;5.75;;;;;;;17.81;64.64;100470.19;4831304;29;20089;-86
2021/07/25 00:56:11;;;;;;;7.70;5.22;;;;;;;17.83;64.59;100470.59;4831688;29;20081;-86
2021/07/25 00:58:39;;;;;;;9.20;5.53;;;;;;;17.82;64.62;100477.41;4830072;29;20136;-83
2021/07/25 01:01:08;;;;;;;6.40;4.70;;;;;;;17.80;64.81;100475.00;4831571;29;20050;-85
2021/07/25 01:04:06;;;;;;;6.57;5.80;;;;;;;17.77;65.09;100475.78;4831777;29;20049;-84
2021/07/25 01:06:57;;;;;;;8.60;5.30;;;;;;;17.71;65.05;100473.81;4815748;29;20595;-87
2021/07/25 01:09:49;;;;;;;8.40;5.57;;;;;;;17.64;65.23;100486.59;4831759;29;20506;-86
2021/07/25 01:12:40;;;;;;;6.47;4.93;;;;;;;17.66;65.32;100479.81;4830919;29;20054;-86
2021/07/25 01:15:13;;;;;;;7.95;5.03;;;;;;;17.62;65.15;100486.19;4830864;29;20134;-84
2021/07/25 01:17:40;;;;;;;15.68;6.05;;;;;;;17.59;65.25;100481.38;4831447;29;20107;-86
2021/07/25 01:20:09;;;;;;;11.85;5.95;;;;;;;17.57;65.06;100486.59;4831996;29;20050;-84
2021/07/25 01:22:38;;;;;;;7.68;5.00;;;;;;;17.57;65.54;100483.00;4831683;29;20074;-86
2021/07/25 01:25:07;;;;;;;19.77;5.57;;;;;;;17.58;65.47;100490.97;4831746;29;20482;-85
2021/07/25 01:28:03;;;;;;;7.10;4.75;;;;;;;17.56;65.97;100481.38;4832016;29;20045;-86
2021/07/25 01:30:55;;;;;;;5.85;4.40;;;;;;;17.58;65.98;100495.78;4830730;29;20052;-85
2021/07/25 01:33:27;;;;;;;7.78;5.55;;;;;;;17.58;65.70;100493.78;4821806;29;20054;-86
2021/07/25 01:35:59;;;;;;;7.25;4.88;;;;;;;17.56;65.80;100489.78;4832075;29;20057;-85
2021/07/25 01:38:27;;;;;;;7.45;4.70;;;;;;;17.53;65.93;100490.56;4830070;29;20117;-87
2021/07/25 01:41:03;;;;;;;8.05;5.57;;;;;;;17.51;66.17;100496.53;4829504;29;20145;-88
2021/07/25 01:43:37;;;;;;;9.93;5.43;;;;;;;17.52;66.14;100495.34;4831307;29;20045;-86
2021/07/25 01:46:04;;;;;;;6.57;5.25;;;;;;;17.53;66.04;100480.19;4814872;29;20546;-85
2021/07/25 01:48:31;;;;;;;7.47;4.90;;;;;;;17.53;66.25;100484.97;4815125;29;20878;-84
2021/07/25 01:50:58;;;;;;;8.02;5.85;;;;;;;17.54;66.10;100490.19;4833663;29;20056;-85
2021/07/25 01:53:25;;;;;;;6.00;5.05;;;;;;;17.55;66.26;100497.38;4817961;29;20475;-86
2021/07/25 01:55:52;;;;;;;7.22;5.03;;;;;;;17.54;66.33;100484.59;4835306;29;20685;-85
2021/07/25 01:58:18;;;;;;;6.22;4.65;;;;;;;17.55;66.46;100485.41;4834287;29;20132;-87
2021/07/25 02:00:45;;;;;;;10.90;5.90;;;;;;;17.55;66.70;100480.56;4833884;29;20052;-85
2021/07/25 02:03:18;;;;;;;7.45;5.78;;;;;;;17.55;66.69;100482.59;4834878;29;20050;-87
2021/07/25 02:05:45;;;;;;;8.98;4.72;;;;;;;17.59;66.27;100483.38;4835451;29;20380;-87
2021/07/25 02:08:12;;;;;;;6.90;4.60;;;;;;;17.63;66.35;100478.59;4817331;29;20498;-86
2021/07/25 02:10:45;;;;;;;7.47;5.18;;;;;;;17.59;66.37;100475.00;4833506;29;20582;-87
2021/07/25 02:13:14;;;;;;;6.32;4.25;;;;;;;17.61;66.19;100487.38;4834641;29;20066;-85
2021/07/25 02:15:42;;;;;;;6.05;4.50;;;;;;;17.57;66.37;100478.19;4833967;29;20042;-85
2021/07/25 02:18:09;;;;;;;9.15;5.15;;;;;;;17.55;66.49;100479.78;4832394;29;20074;-87
2021/07/25 02:20:36;;;;;;;8.32;4.93;;;;;;;17.51;66.50;100484.53;4834210;29;20037;-85
2021/07/25 02:23:03;;;;;;;6.10;4.22;;;;;;;17.48;66.73;100477.75;4832830;29;20064;-87
2021/07/25 02:25:30;;;;;;;6.25;4.15;;;;;;;17.47;66.80;100486.56;4832935;29;20038;-86
2021/07/25 02:27:57;;;;;;;5.07;4.07;;;;;;;17.50;66.73;100488.56;4834039;29;20042;-86
2021/07/25 02:30:24;;;;;;;6.43;3.97;;;;;;;17.51;66.52;100490.94;4834211;29;20783;-85
2021/07/25 02:32:50;;;;;;;8.63;4.60;;;;;;;17.53;66.55;100487.78;4834764;29;20060;-84
2021/07/25 02:35:17;;;;;;;8.15;5.43;;;;;;;17.53;66.68;100488.56;4817262;29;20041;-84
2021/07/25 02:37:44;;;;;;;5.65;4.90;;;;;;;17.53;66.61;100494.19;4834030;29;20053;-86
2021/07/25 02:40:11;;;;;;;7.63;5.05;;;;;;;17.49;66.55;100504.53;4833883;29;20493;-86
2021/07/25 02:42:38;;;;;;;7.63;5.20;;;;;;;17.41;67.06;100497.34;4811350;29;20049;-85
2021/07/25 02:45:05;;;;;;;6.00;4.55;;;;;;;17.38;66.93;100502.91;4834232;29;20485;-86
2021/07/25 02:47:32;;;;;;;10.25;5.45;;;;;;;17.31;67.25;100502.91;4833825;29;20068;-87
2021/07/25 02:49:58;;;;;;;7.22;4.82;;;;;;;17.27;67.39;100496.50;4816868;29;20076;-85
2021/07/25 02:52:25;;;;;;;9.82;4.80;;;;;;;17.28;67.31;100498.09;4832624;29;20149;-86
2021/07/25 02:54:52;;;;;;;6.57;4.50;;;;;;;17.27;67.39;100500.09;4817020;29;20140;-87
2021/07/25 02:57:18;;;;;;;8.82;5.57;;;;;;;17.28;67.42;100503.69;4832992;29;20052;-86
2021/07/25 02:59:45;;;;;;;8.95;5.45;;;;;;;17.23;67.66;100501.28;4833520;29;20064;-85
2021/07/25 03:02:12;;;;;;;7.25;5.00;;;;;;;17.21;67.64;100503.69;4832912;29;20042;-87
2021/07/25 03:04:41;;;;;;;8.02;5.60;;;;;;;17.21;68.09;100503.69;4834014;29;20045;-87
2021/07/25 03:07:08;;;;;;;11.23;6.00;;;;;;;17.18;67.99;100494.09;4831789;29;20085;-85
2021/07/25 03:09:35;;;;;;;9.07;5.90;;;;;;;17.13;68.25;100502.84;4833767;29;20057;-85
2021/07/25 03:12:02;;;;;;;7.32;5.20;;;;;;;17.13;68.29;100497.25;4833413;29;20482;-86
2021/07/25 03:14:29;;;;;;;11.35;5.22;;;;;;;17.10;68.34;100498.06;4831148;29;20849;-87
2021/07/25 03:16:56;;;;;;;6.97;4.32;;;;;;;17.10;68.34;100492.47;4823989;29;20046;-86
2021/07/25 03:19:23;;;;;;;5.75;4.70;;;;;;;17.12;68.15;100492.88;4808020;29;20093;-83
2021/07/25 03:21:49;;;;;;;9.48;5.57;;;;;;;17.10;68.34;100486.88;4822530;29;20042;-86
2021/07/25 03:24:17;;;;;;;11.82;6.70;;;;;;;17.05;68.33;100492.84;4828933;29;20482;-86
2021/07/25 03:26:49;;;;;;;6.10;4.57;;;;;;;17.02;68.55;100490.84;4829997;29;20041;-86
2021/07/25 03:29:15;;;;;;;8.20;4.80;;;;;;;17.08;68.27;100489.25;4810452;29;20581;-87
2021/07/25 03:31:42;;;;;;;7.43;5.22;;;;;;;17.09;68.16;100488.06;4826543;29;20534;-87
2021/07/25 03:34:09;;;;;;;9.43;5.65;;;;;;;17.08;68.21;100494.06;4831337;29;20046;-85
2021/07/25 03:36:36;;;;;;;6.40;4.75;;;;;;;17.04;68.46;100491.25;4829594;29;20050;-85
2021/07/25 03:39:06;;;;;;;8.77;4.95;;;;;;;17.02;68.61;100485.25;4832023;29;20050;-84
2021/07/25 03:41:33;;;;;;;9.88;5.38;;;;;;;17.01;68.73;100486.44;4833100;29;20057;-85
2021/07/25 03:44:00;;;;;;;7.30;5.60;;;;;;;16.95;68.97;100502.00;4815662;29;20098;-87
2021/07/25 03:46:26;;;;;;;6.72;5.82;;;;;;;16.94;68.93;100494.81;4830137;29;20050;-86
2021/07/25 03:48:56;;;;;;;8.15;5.88;;;;;;;16.92;69.06;100494.38;4830958;29;20114;-86
2021/07/25 03:51:25;;;;;;;7.88;6.53;;;;;;;16.87;69.18;100489.19;4829503;29;20482;-86
2021/07/25 03:53:52;;;;;;;9.07;6.18;;;;;;;16.85;69.18;100491.56;4815717;29;20054;-86
2021/07/25 03:56:19;;;;;;;12.57;6.32;;;;;;;16.81;69.37;100496.38;4829366;29;20721;-86
2021/07/25 03:58:46;;;;;;;9.43;5.93;;;;;;;16.80;69.45;100497.56;4827864;29;20057;-86
2021/07/25 04:01:13;;;;;;;7.68;5.30;;;;;;;16.78;69.47;100505.53;4824230;29;20068;-86
2021/07/25 04:03:40;;;;;;;7.88;5.40;;;;;;;16.74;69.40;100501.91;4829691;29;20126;-87
2021/07/25 04:06:06;;;;;;;12.65;7.07;;;;;;;16.74;69.49;100505.50;4823346;29;20481;-86
2021/07/25 04:08:34;;;;;;;9.93;7.22;;;;;;;16.68;69.54;100504.28;4822925;29;20045;-87
2021/07/25 04:11:03;;;;;;;13.55;7.20;;;;;;;16.70;69.53;100501.09;4822021;29;20074;-87
2021/07/25 04:13:30;;;;;;;9.90;7.55;;;;;;;16.66;69.60;100512.25;4825185;29;20137;-86
2021/07/25 04:15:57;;;;;;;9.90;7.07;;;;;;;16.59;69.86;100508.63;4832385;29;20075;-86
2021/07/25 04:18:24;;;;;;;11.48;7.18;;;;;;;16.53;69.97;100508.19;4832236;29;20042;-87
2021/07/25 04:20:51;;;;;;;8.57;6.35;;;;;;;16.53;69.86;100510.19;4816285;29;20390;-87
2021/07/25 04:23:17;;;;;;;9.27;6.28;;;;;;;16.53;69.56;100511.00;4832416;29;20050;-85
2021/07/25 04:25:44;;;;;;;10.73;7.18;;;;;;;16.47;69.83;100509.72;4816095;29;20050;-86
2021/07/25 04:28:12;;;;;;;9.88;6.47;;;;;;;16.42;69.93;100513.69;4830474;29;20641;-86
2021/07/25 04:30:39;;;;;;;9.27;6.35;;;;;;;16.39;70.01;100517.25;4830895;29;20138;-86
2021/07/25 04:33:07;;;;;;;8.82;6.63;;;;;;;16.40;70.00;100518.06;4831863;29;20046;-86
2021/07/25 04:35:37;;;;;;;8.75;6.63;;;;;;;16.37;70.09;100505.69;4830589;29;20090;-87
2021/07/25 04:38:06;;;;;;;9.57;7.20;;;;;;;16.36;70.22;100503.28;4809602;29;20141;-83
2021/07/25 04:40:34;;;;;;;8.85;6.53;;;;;;;16.34;69.99;100500.88;4832058;29;20046;-88
2021/07/25 04:43:03;;;;;;;10.20;6.38;;;;;;;16.32;70.12;100503.25;4831137;29;20068;-86
2021/07/25 04:45:49;;;;;;;16.10;6.47;;;;;;;16.30;70.32;100500.06;4832412;29;20045;-87
2021/07/25 04:48:40;;;;;;;8.90;5.80;;;;;;;16.35;70.06;100490.50;4832105;29;20048;-85
2021/07/25 04:51:10;;;;;;;11.80;6.55;;;;;;;16.38;69.97;100496.13;4830984;29;20517;-87
2021/07/25 04:53:39;;;;;;;8.15;6.25;;;;;;;16.40;70.11;100499.31;4832072;29;20054;-86
2021/07/25 04:56:09;;;;;;;9.75;6.00;;;;;;;16.43;69.92;100498.53;4832105;29;20046;-84
2021/07/25 04:58:41;;;;;;;;;;;;;;;16.41;70.00;100492.53;4832175;29;20045;-86
2021/07/25 05:01:15;;;;;;;9.25;6.55;;;;;;;16.51;69.57;100504.16;4816408;29;19924;-88
2021/07/25 05:03:42;;;;;;;8.27;5.93;;;;;;;16.49;69.72;100496.19;4831891;29;20924;-86
2021/07/25 05:06:11;;;;;;;11.25;6.88;;;;;;;16.49;69.87;100504.56;4832264;29;20046;-86
2021/07/25 05:08:39;;;;;;;12.35;7.00;;;;;;;16.47;69.95;100508.94;4832147;29;20042;-87
2021/07/25 05:11:15;;;;;;;7.38;5.97;;;;;;;16.43;70.63;100509.72;4833025;29;20106;-86
2021/07/25 05:13:46;;;;;;;8.68;6.50;;;;;;;16.43;70.63;100504.13;4831351;29;20145;-85
2021/07/25 05:16:26;;;;;;;9.27;6.40;;;;;;;16.43;70.62;100498.53;4831446;29;20041;-86
2021/07/25 05:19:07;;;;;;;11.18;7.13;;;;;;;16.44;71.08;100505.72;4832039;29;20532;-85
2021/07/25 05:21:40;;;;;;;9.25;7.38;;;;;;;16.47;70.73;100509.72;4815948;29;20696;-83
2021/07/25 05:24:08;;;;;;;9.75;6.85;;;;;;;16.49;70.89;100509.34;4833621;29;20148;-84
2021/07/25 05:26:36;;;;;;;10.43;6.53;;;;;;;16.50;70.89;100505.34;4819368;29;20057;-83
2021/07/25 05:29:03;;;;;;;8.73;7.22;;;;;;;16.50;71.03;100508.13;4835861;29;20160;-85
2021/07/25 05:31:33;;;;;;;11.98;7.63;;;;;;;16.50;70.89;100513.72;4835501;29;20052;-86
2021/07/25 05:34:02;;;;;;;9.80;6.68;;;;;;;16.50;71.02;100508.13;4819040;29;20073;-88
2021/07/25 05:36:30;;;;;;;7.80;6.55;;;;;;;16.49;71.05;100506.56;4818824;29;20042;-87
2021/07/25 05:38:57;;;;;;;8.48;6.65;;;;;;;16.50;71.07;100513.72;4834811;29;20524;-86
2021/07/25 05:41:24;;;;;;;9.65;6.75;;;;;;;16.49;71.17;100518.53;4834732;29;20053;-85
2021/07/25 05:43:51;;;;;;;7.78;6.28;;;;;;;16.49;71.14;100520.53;4818644;29;20054;-86
2021/07/25 05:46:18;;;;;;;21.35;8.63;;;;;;;16.52;71.30;100511.38;4833825;29;20049;-85
2021/07/25 05:48:44;;;;;;;11.82;7.55;;;;;;;16.56;71.39;100515.81;4835151;29;20069;-87
2021/07/25 05:51:11;;;;;;;9.75;6.00;;;;;;;16.67;70.93;100518.66;4818451;29;20046;-88
2021/07/25 05:53:38;;;;;;;6.90;5.28;;;;;;;16.71;70.97;100517.47;4833955;29;20089;-86
2021/07/25 05:56:05;;;;;;;9.57;6.10;;;;;;;16.74;70.91;100513.09;4818609;29;20053;-89
2021/07/25 05:58:32;;;;;;;7.28;6.32;;;;;;;16.79;71.08;100516.31;4834194;29;20052;-88
2021/07/25 06:00:58;;;;;;;9.65;6.18;;;;;;;16.85;71.13;100525.13;4818132;29;20046;-86
2021/07/25 06:03:25;;;;;;;11.00;7.18;;;;;;;16.93;71.14;100523.97;4835204;29;20042;-88
2021/07/25 06:05:52;;;;;;;8.80;6.63;;;;;;;16.96;70.95;100525.97;4834677;29;20042;-87
2021/07/25 06:08:18;;;;;;;11.57;6.20;;;;;;;17.05;71.03;100523.59;4818320;29;20069;-83
2021/07/25 06:10:45;;;;;;;10.13;6.68;;;;;;;17.13;70.81;100530.81;4818345;29;20046;-85
2021/07/25 06:13:12;;;;;;;10.88;7.35;;;;;;;17.22;70.53;100530.47;4832604;29;20524;-87
2021/07/25 06:15:39;;;;;;;10.57;7.05;;;;;;;17.29;70.41;100528.47;4828010;29;20132;-87
2021/07/25 06:18:07;;;;;;;8.50;6.68;;;;;;;17.36;70.24;100522.91;4834211;29;20502;-86
2021/07/25 06:20:34;;;;;;;8.27;6.07;;;;;;;17.46;69.88;100522.13;4830859;29;20056;-87
2021/07/25 06:23:01;;;;;;;10.48;7.82;;;;;;;17.48;69.96;100524.53;4825320;29;20062;-85
2021/07/25 06:25:30;;;;;;;13.75;6.70;;;;;;;17.53;70.07;100515.75;4826627;29;20050;-86
2021/07/25 06:27:59;;;;;;;7.40;6.60;;;;;;;17.58;69.91;100524.56;4829551;29;20064;-87
2021/07/25 06:30:27;;;;;;;9.27;6.50;;;;;;;17.72;69.71;100522.97;4832172;29;20136;-88
2021/07/25 06:32:56;;;;;;;8.27;5.95;;;;;;;17.79;69.54;100529.38;4824720;29;20049;-86
2021/07/25 06:35:31;;;;;;;8.77;7.38;;;;;;;17.84;69.30;100519.81;4831993;29;20062;-86
2021/07/25 06:38:09;;;;;;;12.27;7.63;;;;;;;17.87;69.38;100521.81;4826126;29;20044;-86
2021/07/25 06:40:38;;;;;;;9.90;7.00;;;;;;;17.93;69.16;100528.59;4823135;29;20077;-84
2021/07/25 06:43:05;;;;;;;14.02;8.07;;;;;;;17.96;69.24;100528.59;4831145;29;20046;-87
2021/07/25 06:45:33;;;;;;;7.97;6.60;;;;;;;17.95;69.44;100529.78;4822710;29;20158;-83
2021/07/25 06:48:00;;;;;;;8.80;5.97;;;;;;;17.97;69.17;100529.41;4824070;29;20075;-88
2021/07/25 06:50:29;;;;;;;9.05;7.35;;;;;;;17.98;69.12;100531.78;4831786;29;20042;-86
2021/07/25 06:52:58;;;;;;;8.20;6.18;;;;;;;18.02;69.29;100531.81;4828430;29;20064;-88
2021/07/25 06:55:27;;;;;;;10.32;7.07;;;;;;;18.14;69.28;100528.59;4825802;29;20054;-87
2021/07/25 06:57:54;;;;;;;10.43;8.02;;;;;;;18.24;69.10;100530.59;4829685;29;20054;-85
2021/07/25 07:00:21;;;;;;;9.40;7.63;;;;;;;18.28;69.13;100528.56;4827004;29;20066;-86
2021/07/25 07:02:52;;;;;;;9.60;6.72;;;;;;;18.31;69.17;100533.38;4824722;29;20073;-86
2021/07/25 07:05:23;;;;;;;;;;;;;;;18.31;69.18;100524.16;4831228;29;20102;-88
2021/07/25 07:07:51;;;;;;;10.15;7.22;;;;;;;18.37;68.95;100526.19;4833067;29;19933;-87
2021/07/25 07:10:21;;;;;;;8.35;6.88;;;;;;;18.41;68.86;100532.56;4833265;29;20050;-85
2021/07/25 07:12:50;;;;;;;8.05;7.25;;;;;;;18.44;68.98;100533.75;4833237;29;20054;-87
2021/07/25 07:15:18;;;;;;;10.38;6.88;;;;;;;18.47;68.90;100530.97;4833158;29;20053;-86
2021/07/25 07:17:48;;;;;;;13.23;9.07;;;;;;;18.47;68.88;100530.97;4833498;29;20046;-86
2021/07/25 07:20:15;;;;;;;8.02;6.78;;;;;;;18.50;68.98;100533.00;4832802;29;20050;-87
2021/07/25 07:22:42;;;;;;;15.73;9.05;;;;;;;18.54;68.93;100530.16;4832134;29;20417;-87
2021/07/25 07:25:09;;;;;;;16.42;8.70;;;;;;;18.60;69.20;100520.94;4816923;29;20050;-87
2021/07/25 07:27:36;;;;;;;8.30;7.07;;;;;;;18.72;68.97;100520.50;4817100;29;20497;-86
2021/07/25 07:30:03;;;;;;;7.20;6.15;;;;;;;18.85;68.86;100530.06;4817162;29;20058;-86
2021/07/25 07:32:30;;;;;;;8.98;7.38;;;;;;;19.00;68.92;100535.63;4833794;29;20042;-88
2021/07/25 07:34:57;;;;;;;9.20;6.40;;;;;;;19.12;68.76;100530.34;4833871;29;20050;-86
2021/07/25 07:37:24;;;;;;;7.50;6.47;;;;;;;19.20;68.87;100534.72;4832046;29;20038;-87
2021/07/25 07:39:51;;;;;;;10.43;6.53;;;;;;;19.26;68.25;100535.09;4833433;29;20052;-86
2021/07/25 07:42:18;;;;;;;8.32;6.85;;;;;;;19.34;67.91;100533.84;4826718;29;20064;-86
2021/07/25 07:44:44;;;;;;;11.00;6.97;;;;;;;19.42;67.64;100527.81;4834502;29;20074;-87
2021/07/25 07:47:11;;;;;;;8.07;6.63;;;;;;;19.54;67.28;100539.78;4832581;29;20060;-84
2021/07/25 07:49:38;;;;;;;9.32;6.25;;;;;;;19.55;67.34;100532.94;4817937;29;20448;-83
2021/07/25 07:52:06;;;;;;;7.50;6.45;;;;;;;19.64;66.93;100541.72;4834093;29;20046;-86
2021/07/25 07:54:33;;;;;;;12.40;7.97;;;;;;;19.72;67.05;100534.84;4817515;29;20054;-83
2021/07/25 07:57:00;;;;;;;9.25;5.72;;;;;;;19.81;67.86;100530.34;4816678;29;20046;-84
2021/07/25 07:59:27;;;;;;;6.82;5.45;;;;;;;20.00;68.58;100532.59;4833808;29;20060;-83
2021/07/25 08:01:54;;;;;;;8.55;6.25;;;;;;;20.24;69.19;100530.81;4817136;29;20050;-83
2021/07/25 08:04:21;;;;;;;7.20;6.20;;;;;;;20.51;69.29;100537.38;4833961;29;20069;-82
2021/07/25 08:06:48;;;;;;;8.27;6.47;;;;;;;20.80;68.65;100546.31;4834999;29;20125;-83
2021/07/25 08:09:14;;;;;;;8.40;6.45;;;;;;;21.05;67.11;100527.09;4833316;29;20056;-83
2021/07/25 08:11:45;;;;;;;10.32;6.55;;;;;;;21.53;66.48;100531.69;4833738;29;20053;-83
2021/07/25 08:14:19;;;;;;;8.07;6.13;;;;;;;21.86;64.95;100536.47;4834005;29;20058;-85
2021/07/25 08:16:47;;;;;;;11.57;6.68;;;;;;;22.31;64.23;100532.06;4833776;29;20357;-83
2021/07/25 08:19:15;;;;;;;10.77;7.10;;;;;;;22.97;63.37;100540.50;4833424;29;20052;-83
2021/07/25 08:21:43;;;;;;;7.40;5.63;;;;;;;23.58;61.98;100546.47;4833416;29;20071;-83
2021/07/25 08:24:10;;;;;;;6.93;5.57;;;;;;;23.78;60.38;100537.09;4816480;29;20037;-84
2021/07/25 08:26:37;;;;;;;7.03;5.15;;;;;;;24.18;59.52;100544.22;4832720;29;20046;-84
2021/07/25 08:29:04;;;;;;;8.20;5.50;;;;;;;24.70;58.41;100546.91;4817368;29;20841;-84
2021/07/25 08:31:31;;;;;;;6.85;5.47;;;;;;;25.15;56.92;100544.03;4816448;29;20073;-84
2021/07/25 08:33:58;;;;;;;7.35;5.07;;;;;;;25.44;55.64;100533.41;4833743;29;20042;-84
2021/07/25 08:36:24;;;;;;;8.77;5.30;;;;;;;25.90;54.45;100543.31;4817920;29;20128;-84
2021/07/25 08:38:52;;;;;;;6.53;4.68;;;;;;;26.22;53.20;100542.28;4834540;29;20129;-84
2021/07/25 08:41:45;;;;;;;6.55;4.80;;;;;;;26.12;51.67;100534.88;4816730;29;20054;-83
2021/07/25 08:44:27;;;;;;;7.30;5.15;;;;;;;26.21;52.38;100530.13;4833972;29;20705;-85
2021/07/25 08:46:57;;;;;;;6.50;5.15;;;;;;;26.51;51.39;100528.69;4833597;29;20053;-84
2021/07/25 08:49:41;;;;;;;6.53;4.72;;;;;;;26.39;50.42;100523.84;4833808;29;20046;-85
2021/07/25 08:52:16;;;;;;;7.78;5.10;;;;;;;26.28;50.36;100534.78;4832999;29;20376;-84
2021/07/25 08:54:43;;;;;;;9.07;5.28;;;;;;;26.10;50.61;100523.22;4816724;29;20054;-83
2021/07/25 08:57:19;;;;;;;7.07;5.03;;;;;;;25.86;49.99;100515.09;4833380;29;20046;-84
2021/07/25 08:59:50;;;;;;;5.50;4.03;;;;;;;25.69;50.07;100515.63;4836731;29;20049;-84
2021/07/25 09:02:27;;;;;;;7.63;5.22;;;;;;;26.01;49.69;100521.84;4837754;29;20053;-84
2021/07/25 09:04:55;;;;;;;5.07;4.57;;;;;;;26.12;49.57;100526.38;4838005;29;20115;-84
2021/07/25 09:07:24;;;;;;;9.10;4.95;;;;;;;25.88;49.30;100512.56;4836510;29;20069;-84
2021/07/25 09:09:55;;;;;;;9.98;5.43;;;;;;;25.61;49.74;100517.09;4836930;29;20115;-84
2021/07/25 09:12:23;;;;;;;7.50;5.30;;;;;;;25.75;49.84;100514.63;4805321;29;20054;-82
2021/07/25 09:14:52;;;;;;;5.43;4.75;;;;;;;26.00;49.55;100514.59;4819464;29;20058;-84
2021/07/25 09:17:20;;;;;;;6.20;4.35;;;;;;;26.33;49.38;100523.63;4819271;29;20395;-85
2021/07/25 09:20:12;;;;;;;5.47;4.20;;;;;;;26.84;48.33;100518.59;4836800;29;20050;-84
2021/07/25 09:22:55;;;;;;;6.78;4.65;;;;;;;27.10;47.52;100516.41;4834567;29;20049;-82
2021/07/25 09:25:21;;;;;;;6.22;4.40;;;;;;;27.00;47.25;100524.09;4836452;29;20049;-86
2021/07/25 09:27:57;;;;;;;5.20;3.97;;;;;;;26.68;46.76;100518.75;4819238;29;20495;-86
2021/07/25 09:30:29;;;;;;;5.30;4.05;;;;;;;26.21;47.06;100523.69;4835293;29;20046;-86
2021/07/25 09:32:56;;;;;;;5.30;4.10;;;;;;;25.77;47.59;100529.13;4836258;29;20057;-87
2021/07/25 09:35:26;;;;;;;4.20;3.80;;;;;;;25.79;47.85;100529.47;4836597;29;20045;-85
2021/07/25 09:37:55;;;;;;;5.33;4.83;;;;;;;25.84;47.86;100522.47;4820839;29;20034;-86
2021/07/25 09:40:30;;;;;;;8.13;4.43;;;;;;;26.18;47.83;100524.59;4835579;29;20044;-86
2021/07/25 09:43:11;;;;;;;4.90;4.40;;;;;;;26.67;46.34;100516.34;4820270;29;20061;-86
2021/07/25 09:45:50;;;;;;;4.88;4.38;;;;;;;26.62;45.60;100523.41;4836207;29;20046;-86
2021/07/25 09:48:18;;;;;;;6.40;5.13;;;;;;;26.64;46.65;100518.06;4834697;29;20140;-85
2021/07/25 09:50:46;;;;;;;5.40;4.90;;;;;;;26.71;46.25;100523.50;4835438;29;20053;-86
2021/07/25 09:53:13;;;;;;;4.72;4.22;;;;;;;26.92;46.18;100519.13;4835165;29;20068;-86
2021/07/25 09:55:40;;;;;;;6.65;4.70;;;;;;;26.81;45.90;100522.34;4836181;29;20068;-85
2021/07/25 09:58:07;;;;;;;7.28;4.63;;;;;;;26.73;45.94;100521.00;4835040;29;20104;-86
2021/07/25 10:00:44;;;;;;;5.97;4.55;;;;;;;26.88;45.52;100522.09;4833905;29;20060;-86
2021/07/25 10:03:17;;;;;;;6.78;4.15;;;;;;;27.29;45.49;100517.31;4819258;29;20074;-86
2021/07/25 10:05:45;;;;;;;11.20;4.70;;;;;;;27.57;45.20;100516.19;4836135;29;20052;-87
2021/07/25 10:08:16;;;;;;;6.07;4.00;;;;;;;27.35;45.02;100516.22;4817905;29;20073;-86
2021/07/25 10:10:49;;;;;;;4.30;3.80;;;;;;;27.03;45.51;100505.31;4818679;29;20061;-86
2021/07/25 10:13:18;;;;;;;7.95;4.50;;;;;;;27.33;45.03;100520.78;4836356;29;20054;-86
2021/07/25 10:15:54;;;;;;;8.63;4.55;;;;;;;27.41;44.44;100519.28;4834980;29;20049;-87
2021/07/25 10:18:23;;;;;;;9.30;5.32;;;;;;;27.03;44.60;100523.13;4811561;29;20046;-86
2021/07/25 10:21:00;;;;;;;7.40;4.63;;;;;;;26.51;45.24;100520.16;4824024;29;20387;-85
2021/07/25 10:23:36;;;;;;;5.63;4.07;;;;;;;26.43;45.74;100527.34;4829567;29;20046;-84
2021/07/25 10:26:03;;;;;;;5.90;4.22;;;;;;;26.41;46.04;100527.03;4826638;29;20050;-83
2021/07/25 10:28:31;;;;;;;7.25;4.53;;;;;;;26.24;45.72;100522.78;4827652;29;20479;-85
2021/07/25 10:31:00;;;;;;;4.53;4.10;;;;;;;25.93;46.24;100525.38;4835355;29;20042;-85
2021/07/25 10:33:28;;;;;;;5.70;4.40;;;;;;;25.84;46.37;100531.72;4826879;29;20471;-85
2021/07/25 10:36:00;;;;;;;8.02;4.40;;;;;;;25.75;46.35;100531.66;4833798;29;20045;-85
2021/07/25 10:38:28;;;;;;;6.00;5.05;;;;;;;25.57;47.08;100522.13;4818835;29;20415;-84
2021/07/25 10:40:56;;;;;;;5.68;4.80;;;;;;;25.33;47.52;100521.63;4832277;29;20045;-85
2021/07/25 10:43:25;;;;;;;5.72;4.70;;;;;;;25.08;48.06;100530.03;4827847;29;20430;-86
2021/07/25 10:46:14;;;;;;;9.55;6.25;;;;;;;24.81;49.78;100525.56;4803820;29;20050;-85
2021/07/25 10:49:03;;;;;;;11.63;6.35;;;;;;;24.90;49.53;100530.56;4813430;29;20073;-84
2021/07/25 10:51:31;;;;;;;8.00;6.22;;;;;;;24.93;49.80;100532.50;4831048;29;20529;-85
2021/07/25 10:54:23;;;;;;;9.35;6.00;;;;;;;25.32;49.90;100520.00;4818154;29;20157;-83
2021/07/25 10:57:20;;;;;;;8.65;5.35;;;;;;;25.45;49.67;100523.66;4833826;29;20042;-84
2021/07/25 10:59:55;;;;;;;10.77;6.10;;;;;;;25.55;49.85;100536.72;4819298;29;20081;-85
2021/07/25 11:02:21;;;;;;;6.68;4.63;;;;;;;25.66;50.25;100522.22;4815593;29;20383;-84
2021/07/25 11:04:51;;;;;;;8.02;6.22;;;;;;;25.84;49.72;100528.91;4823450;29;20074;-84
2021/07/25 11:07:24;;;;;;;9.00;5.40;;;;;;;25.93;49.39;100520.50;4830622;29;20059;-84
2021/07/25 11:09:57;;;;;;;6.22;5.63;;;;;;;26.01;49.49;100521.84;4824247;29;20056;-84
2021/07/25 11:12:25;;;;;;;5.72;5.13;;;;;;;26.05;49.27;100513.25;4815279;29;20056;-83
2021/07/25 11:14:55;;;;;;;7.72;5.22;;;;;;;26.17;49.00;100520.16;4821010;29;20575;-84
2021/07/25 11:17:43;;;;;;;6.57;5.13;;;;;;;26.29;48.76;100522.94;4814821;29;20046;-85
2021/07/25 11:20:33;;;;;;;10.35;5.75;;;;;;;26.30;47.96;100523.75;4816709;29;20049;-85
2021/07/25 11:23:01;;;;;;;8.68;5.80;;;;;;;26.30;49.08;100518.06;4814764;29;20050;-84
2021/07/25 11:25:34;;;;;;;8.20;4.88;;;;;;;26.35;48.89;100506.13;4808150;29;20089;-84
2021/07/25 11:28:03;;;;;;;7.97;6.25;;;;;;;26.35;49.00;100511.81;4805568;29;20054;-84
2021/07/25 11:30:48;;;;;;;13.10;5.65;;;;;;;26.30;48.80;100518.06;4808066;29;20061;-84
2021/07/25 11:33:40;;;;;;;8.57;4.90;;;;;;;26.25;49.07;100512.97;4815809;29;20045;-84
2021/07/25 11:36:09;;;;;;;11.52;6.30;;;;;;;26.12;49.48;100512.19;4820675;29;20065;-85
2021/07/25 11:38:38;;;;;;;6.35;4.93;;;;;;;26.02;49.52;100505.63;4808254;29;20050;-84